Time;durP1;ratioP1;P1;durP2;ratioP2;P2;SDS_P1;SDS_P2;PMS_P1;PMS_P2;Temp;Humidity;BMP_temperature;BMP_pressure;BME280_temperature;BME280_humidity;BME280_pressure;Samples;Min_cycle;Max_cycle;Signal;HPM_P1;HPM_P2
2022/05/24 00:00:49;;;;;;;5.03;2.40;;;15.60;99.90;;;;;;5213963;28;20059;-76
2022/05/24 00:03:22;;;;;;;7.88;3.13;;;15.60;99.90;;;;;;5204694;28;20067;-76
2022/05/24 00:05:54;;;;;;;5.05;2.40;;;15.60;99.90;;;;;;5197570;28;20048;-76
2022/05/24 00:08:27;;;;;;;4.95;2.35;;;15.60;99.90;;;;;;5216032;28;20067;-77
2022/05/24 00:10:59;;;;;;;5.05;2.90;;;15.60;99.90;;;;;;5213929;28;20048;-75
2022/05/24 00:13:32;;;;;;;4.82;3.13;;;15.60;99.90;;;;;;5219995;28;20045;-76
2022/05/24 00:16:05;;;;;;;9.52;3.67;;;15.70;99.90;;;;;;5217629;28;20048;-76
2022/05/24 00:18:37;;;;;;;6.70;3.58;;;15.60;99.90;;;;;;5216277;28;20052;-76
2022/05/24 00:21:12;;;;;;;8.63;3.63;;;15.60;99.90;;;;;;5213547;28;20053;-76
2022/05/24 00:23:44;;;;;;;6.78;3.60;;;15.60;99.90;;;;;;5220731;28;21199;-75
2022/05/24 00:26:29;;;;;;;9.02;3.60;;;15.60;99.90;;;;;;5217235;28;20032;-76
2022/05/24 00:29:01;;;;;;;7.45;3.85;;;15.60;99.90;;;;;;5212942;28;20411;-76
2022/05/24 00:31:33;;;;;;;6.57;3.90;;;15.70;99.90;;;;;;5218259;28;20044;-76
2022/05/24 00:34:06;;;;;;;10.07;4.68;;;15.70;99.90;;;;;;5205801;28;20607;-76
2022/05/24 00:36:39;;;;;;;7.07;3.45;;;15.70;99.90;;;;;;5218266;28;20048;-76
2022/05/24 00:39:11;;;;;;;10.77;4.03;;;15.70;99.90;;;;;;5189806;28;20127;-76
2022/05/24 00:41:58;;;;;;;4.35;2.85;;;15.70;99.90;;;;;;5215205;28;20049;-76
2022/05/24 00:44:39;;;;;;;6.05;3.20;;;15.70;99.90;;;;;;5202364;28;20040;-76
2022/05/24 00:47:22;;;;;;;7.47;2.90;;;15.70;99.90;;;;;;5208367;28;23287;-76
2022/05/24 00:49:58;;;;;;;9.10;3.60;;;15.70;99.90;;;;;;5215125;28;20436;-76
2022/05/24 00:52:39;;;;;;;10.57;4.40;;;15.80;99.90;;;;;;5216784;28;20841;-76
2022/05/24 00:55:15;;;;;;;7.45;3.10;;;15.70;99.90;;;;;;5213035;28;20048;-76
2022/05/24 00:58:07;;;;;;;6.68;3.45;;;15.70;99.90;;;;;;5216449;28;20587;-76
2022/05/24 01:00:42;;;;;;;8.05;3.75;;;15.70;99.90;;;;;;5211504;28;20480;-76
2022/05/24 01:03:15;;;;;;;9.57;3.33;;;15.70;99.90;;;;;;5203763;28;20532;-76
2022/05/24 01:05:48;;;;;;;11.00;3.50;;;15.80;99.90;;;;;;5215684;28;20051;-76
2022/05/24 01:08:20;;;;;;;7.85;3.20;;;15.80;99.90;;;;;;5217637;28;20044;-77
2022/05/24 01:10:53;;;;;;;7.28;3.33;;;15.70;99.90;;;;;;5213857;28;20052;-76
2022/05/24 01:13:29;;;;;;;6.78;3.47;;;15.70;99.90;;;;;;5213923;28;20045;-76
2022/05/24 01:16:01;;;;;;;5.97;3.17;;;15.70;99.90;;;;;;5208935;28;20048;-77
2022/05/24 01:18:35;;;;;;;6.82;3.05;;;15.70;99.90;;;;;;5204221;28;20079;-76
2022/05/24 01:21:11;;;;;;;;;;;15.70;99.90;;;;;;5213102;28;20056;-76
2022/05/24 01:24:15;;;;;;;7.47;3.50;;;15.60;99.90;;;;;;5196446;28;19935;-76
2022/05/24 01:26:54;;;;;;;6.25;2.85;;;15.60;99.90;;;;;;5214703;28;20056;-76
2022/05/24 01:29:27;;;;;;;10.65;3.28;;;15.50;99.90;;;;;;5198417;28;20044;-77
2022/05/24 01:37:41;;;;;;;12.05;3.72;;;15.60;99.90;;;;;;5211405;28;20049;-77
2022/05/24 01:40:14;;;;;;;6.22;3.25;;;15.60;99.90;;;;;;5211169;28;20047;-77
2022/05/24 01:42:46;;;;;;;7.75;2.75;;;15.50;99.90;;;;;;5217571;28;20037;-77
2022/05/24 01:45:27;;;;;;;7.90;3.05;;;15.50;99.90;;;;;;5209562;28;20059;-77
2022/05/24 01:48:11;;;;;;;8.43;3.65;;;15.50;99.90;;;;;;5207887;28;20044;-76
2022/05/24 01:50:45;;;;;;;6.72;3.38;;;15.50;99.90;;;;;;5208889;28;20455;-77
2022/05/24 01:53:33;;;;;;;9.23;3.78;;;15.50;99.90;;;;;;5213120;28;20060;-77
2022/05/24 01:56:55;;;;;;;11.73;3.90;;;15.40;99.90;;;;;;5213365;28;20071;-76
2022/05/24 01:59:29;;;;;;;9.80;3.58;;;15.40;99.90;;;;;;5211733;28;20049;-76
2022/05/24 02:02:02;;;;;;;8.90;3.40;;;15.40;99.90;;;;;;5212225;28;20048;-77
2022/05/24 02:04:35;;;;;;;9.77;3.30;;;15.40;99.90;;;;;;5206085;28;20049;-77
2022/05/24 02:07:13;;;;;;;10.00;3.70;;;15.40;99.90;;;;;;5214931;28;20053;-77
2022/05/24 02:09:49;;;;;;;8.07;3.42;;;15.40;99.90;;;;;;5213129;28;20045;-77
2022/05/24 02:12:23;;;;;;;8.18;3.90;;;15.40;99.90;;;;;;5213767;28;20417;-77
2022/05/24 02:15:01;;;;;;;11.68;3.83;;;15.40;99.90;;;;;;5211331;28;20057;-77
2022/05/24 02:17:49;;;;;;;9.13;4.25;;;15.40;99.90;;;;;;5213906;28;20523;-77
2022/05/24 02:20:26;;;;;;;8.50;3.92;;;15.40;99.90;;;;;;5211656;28;20518;-77
2022/05/24 02:22:58;;;;;;;8.60;3.92;;;15.30;99.90;;;;;;5216011;28;20472;-77
2022/05/24 02:25:46;;;;;;;9.05;3.67;;;15.40;99.90;;;;;;5218120;28;20056;-76
2022/05/24 02:28:29;;;;;;;10.38;3.85;;;15.40;99.90;;;;;;5215228;28;20041;-76
2022/05/24 02:31:13;;;;;;;7.00;3.53;;;15.40;99.90;;;;;;5218265;28;20056;-77
2022/05/24 02:33:46;;;;;;;9.45;3.88;;;15.40;99.90;;;;;;5215025;28;20129;-77
2022/05/24 02:36:19;;;;;;;8.43;3.92;;;15.40;99.90;;;;;;5211565;28;20594;-77
2022/05/24 02:38:51;;;;;;;7.65;3.53;;;15.40;99.90;;;;;;5216874;28;20044;-76
2022/05/24 02:41:31;;;;;;;8.73;3.70;;;15.40;99.90;;;;;;5205155;28;20534;-76
2022/05/24 02:44:06;;;;;;;8.77;3.90;;;15.40;99.90;;;;;;5211773;28;20061;-77
2022/05/24 02:46:41;;;;;;;10.60;4.32;;;15.40;99.90;;;;;;5219178;28;21054;-77
2022/05/24 02:49:14;;;;;;;9.23;4.22;;;15.40;99.90;;;;;;5217777;28;20045;-77
2022/05/24 02:51:47;;;;;;;11.88;3.78;;;15.40;99.90;;;;;;5218839;28;20045;-77
2022/05/24 02:54:20;;;;;;;6.88;3.97;;;15.40;99.90;;;;;;5220396;28;20527;-77
2022/05/24 02:56:52;;;;;;;6.97;4.18;;;15.40;99.90;;;;;;5215809;28;20047;-77
2022/05/24 02:59:25;;;;;;;6.63;3.85;;;15.40;99.90;;;;;;5216738;28;20444;-76
2022/05/24 03:01:57;;;;;;;13.02;3.75;;;15.30;99.90;;;;;;5215835;28;20703;-76
2022/05/24 03:04:30;;;;;;;12.68;3.92;;;15.40;99.90;;;;;;5217026;28;20044;-77
2022/05/24 03:09:53;;;;;;;7.38;3.83;;;15.40;99.90;;;;;;5218749;28;20460;-77
2022/05/24 03:15:17;;;;;;;7.85;3.45;;;15.30;99.90;;;;;;5215326;28;20052;-77
2022/05/24 03:17:49;;;;;;;6.68;3.80;;;15.40;99.90;;;;;;5222518;28;20048;-77
2022/05/24 03:20:22;;;;;;;6.40;3.92;;;15.40;99.90;;;;;;5214808;28;20579;-77
2022/05/24 03:22:54;;;;;;;7.72;3.30;;;15.40;99.90;;;;;;5203196;28;20068;-77
2022/05/24 03:25:27;;;;;;;8.40;3.78;;;15.40;99.90;;;;;;5210023;28;20049;-75
2022/05/24 03:28:00;;;;;;;7.40;3.95;;;15.40;99.90;;;;;;5210439;28;20076;-77
2022/05/24 03:30:38;;;;;;;6.75;3.53;;;15.40;99.90;;;;;;5213328;28;20041;-76
2022/05/24 03:33:11;;;;;;;5.60;3.63;;;15.40;99.90;;;;;;5212706;28;20057;-76
2022/05/24 03:35:43;;;;;;;6.80;4.35;;;15.40;99.90;;;;;;5210755;28;20059;-76
2022/05/24 03:38:16;;;;;;;4.30;3.15;;;15.40;99.90;;;;;;5218939;28;20041;-76
2022/05/24 03:40:48;;;;;;;6.45;3.83;;;15.40;99.90;;;;;;5222928;28;20593;-76
2022/05/24 03:43:21;;;;;;;6.53;3.53;;;15.40;99.90;;;;;;5206742;28;20044;-75
2022/05/24 03:46:02;;;;;;;6.50;3.88;;;15.30;99.90;;;;;;5222971;28;20055;-76
2022/05/24 03:48:37;;;;;;;7.95;4.28;;;15.30;99.90;;;;;;5189003;28;20064;-77
2022/05/24 03:51:09;;;;;;;10.70;4.18;;;15.40;99.90;;;;;;5209523;28;20177;-76
2022/05/24 03:53:42;;;;;;;15.40;4.05;;;15.40;99.90;;;;;;5202477;28;20048;-76
2022/05/24 03:56:14;;;;;;;7.93;3.80;;;15.40;99.90;;;;;;5208030;28;20427;-77
2022/05/24 03:58:46;;;;;;;6.45;3.72;;;15.30;99.90;;;;;;5204137;28;20056;-77
2022/05/24 04:01:20;;;;;;;10.57;4.00;;;15.30;99.90;;;;;;5202899;28;20102;-77
2022/05/24 04:03:56;;;;;;;6.65;3.80;;;15.30;99.90;;;;;;5203012;28;20041;-77
2022/05/24 04:06:28;;;;;;;6.20;3.08;;;15.30;99.90;;;;;;5206758;28;20047;-77
2022/05/24 04:09:01;;;;;;;7.20;3.42;;;15.30;99.90;;;;;;5202556;28;20532;-76
2022/05/24 04:11:34;;;;;;;6.15;3.63;;;15.30;99.90;;;;;;5202449;28;20056;-76
2022/05/24 04:14:07;;;;;;;15.32;3.92;;;15.30;99.90;;;;;;5209846;28;21154;-77
2022/05/24 04:16:39;;;;;;;8.45;4.70;;;15.30;99.90;;;;;;5201214;28;20048;-77
2022/05/24 04:19:12;;;;;;;5.97;4.05;;;15.20;99.90;;;;;;5205825;28;20053;-77
2022/05/24 04:21:44;;;;;;;6.13;4.15;;;15.30;99.90;;;;;;5209374;28;20049;-76
2022/05/24 04:24:16;;;;;;;6.82;3.28;;;15.20;99.90;;;;;;5215718;28;20930;-77
2022/05/24 04:26:51;;;;;;;8.38;3.92;;;15.30;99.90;;;;;;5211503;28;20848;-77
2022/05/24 04:29:23;;;;;;;7.25;3.20;;;15.20;99.90;;;;;;5206836;28;20052;-77
2022/05/24 04:31:55;;;;;;;6.00;3.53;;;15.30;99.90;;;;;;5208885;28;20063;-77
2022/05/24 04:34:28;;;;;;;6.13;3.85;;;15.30;99.90;;;;;;5212247;28;22630;-77
2022/05/24 04:37:00;;;;;;;10.40;4.60;;;15.30;99.90;;;;;;5206116;28;20051;-76
2022/05/24 04:39:35;;;;;;;6.95;4.00;;;15.40;99.90;;;;;;5201539;28;20040;-76
2022/05/24 04:42:19;;;;;;;5.50;3.72;;;15.40;99.90;;;;;;5205762;28;20158;-76
2022/05/24 04:44:52;;;;;;;7.88;3.67;;;15.40;99.90;;;;;;5207784;28;20052;-76
2022/05/24 04:47:28;;;;;;;6.63;3.47;;;15.40;99.90;;;;;;5195159;28;20052;-76
2022/05/24 04:50:04;;;;;;;8.00;3.60;;;15.40;99.90;;;;;;5198408;28;20043;-76
2022/05/24 04:52:40;;;;;;;6.10;3.83;;;15.40;99.90;;;;;;5197909;28;20068;-75
2022/05/24 04:55:14;;;;;;;9.05;4.13;;;15.30;99.90;;;;;;5204062;28;21080;-75
2022/05/24 04:57:46;;;;;;;9.75;4.18;;;15.40;99.90;;;;;;5206749;28;20049;-76
2022/05/24 05:00:20;;;;;;;7.32;4.05;;;15.40;99.90;;;;;;5200997;28;20072;-75
2022/05/24 05:02:53;;;;;;;9.85;5.07;;;15.50;99.90;;;;;;5193513;28;20047;-75
2022/05/24 05:05:25;;;;;;;13.15;6.88;;;15.50;99.90;;;;;;5196726;28;20057;-76
2022/05/24 05:08:00;;;;;;;14.55;10.93;;;15.50;99.90;;;;;;5187527;28;20507;-76
2022/05/24 05:10:36;;;;;;;9.75;6.38;;;15.40;99.90;;;;;;5202875;28;20048;-75
2022/05/24 05:13:09;;;;;;;14.45;6.75;;;15.40;99.90;;;;;;5206522;28;20056;-75
2022/05/24 05:15:42;;;;;;;16.65;7.32;;;15.40;99.90;;;;;;5193391;28;20049;-76
2022/05/24 05:18:15;;;;;;;12.45;6.10;;;15.30;99.90;;;;;;5197121;28;20044;-76
2022/05/24 05:20:49;;;;;;;;;;;15.40;99.90;;;;;;5206659;28;20408;-75
2022/05/24 05:23:21;;;;;;;11.13;6.00;;;15.40;99.90;;;;;;5202067;28;20395;-76
2022/05/24 05:25:54;;;;;;;11.65;6.40;;;15.40;99.90;;;;;;5206055;28;20448;-75
2022/05/24 05:28:26;;;;;;;7.85;4.60;;;15.40;99.90;;;;;;5207739;28;20048;-76
2022/05/24 05:31:16;;;;;;;12.00;5.30;;;15.50;99.90;;;;;;5186069;28;20408;-76
2022/05/24 05:33:50;;;;;;;10.73;5.95;;;15.50;99.90;;;;;;5203649;28;20056;-75
2022/05/24 05:36:23;;;;;;;16.88;5.93;;;15.50;99.90;;;;;;5201370;28;20049;-76
2022/05/24 05:38:56;;;;;;;8.82;5.28;;;15.50;99.90;;;;;;5210870;28;21097;-75
2022/05/24 05:41:31;;;;;;;12.18;5.10;;;15.70;99.90;;;;;;5220269;28;20055;-75
2022/05/24 05:44:04;;;;;;;12.57;6.43;;;15.70;99.90;;;;;;5214571;28;20037;-76
2022/05/24 05:46:36;;;;;;;18.20;6.63;;;15.60;99.90;;;;;;5215895;28;20048;-75
2022/05/24 05:49:09;;;;;;;12.65;6.00;;;15.60;99.90;;;;;;5214695;28;20048;-76
2022/05/24 05:51:42;;;;;;;12.13;5.90;;;15.60;99.90;;;;;;5219428;28;20045;-75
2022/05/24 05:54:15;;;;;;;14.02;5.80;;;15.60;99.90;;;;;;5206516;28;20059;-75
2022/05/24 05:56:48;;;;;;;12.40;5.50;;;15.70;99.90;;;;;;5211564;28;20420;-76
2022/05/24 05:59:20;;;;;;;14.57;6.07;;;15.70;99.90;;;;;;5218630;28;20052;-75
2022/05/24 06:01:58;;;;;;;9.60;4.80;;;15.80;99.90;;;;;;5214163;28;20260;-76
2022/05/24 06:04:31;;;;;;;10.32;5.00;;;15.90;99.90;;;;;;5217814;28;20041;-76
2022/05/24 06:07:04;;;;;;;8.95;4.43;;;16.00;99.90;;;;;;5218090;28;20041;-76
2022/05/24 06:09:37;;;;;;;11.60;5.43;;;16.00;99.90;;;;;;5211038;28;20053;-74
2022/05/24 06:12:10;;;;;;;8.47;4.60;;;16.10;99.90;;;;;;5216917;28;20056;-76
2022/05/24 06:14:42;;;;;;;6.83;3.90;;;16.10;99.90;;;;;;5223006;28;20044;-75
2022/05/24 06:17:31;;;;;;;8.52;4.25;;;16.10;99.90;;;;;;5224632;28;20060;-75
2022/05/24 06:20:04;;;;;;;10.45;4.13;;;16.20;99.90;;;;;;5214958;28;20067;-75
2022/05/24 06:22:36;;;;;;;9.00;4.37;;;16.20;99.90;;;;;;5212284;28;20044;-73
2022/05/24 06:25:09;;;;;;;8.65;3.80;;;16.20;99.90;;;;;;5213275;28;20306;-76
2022/05/24 06:27:42;;;;;;;10.85;3.35;;;16.20;99.90;;;;;;5215369;28;20048;-75
2022/05/24 06:30:16;;;;;;;7.95;3.20;;;16.20;99.90;;;;;;5221138;28;20057;-76
2022/05/24 06:32:52;;;;;;;6.23;3.67;;;16.20;99.90;;;;;;5218399;28;20416;-75
2022/05/24 06:35:25;;;;;;;6.13;3.47;;;16.10;99.90;;;;;;5225066;28;20049;-74
2022/05/24 06:37:57;;;;;;;8.05;3.78;;;16.10;99.90;;;;;;5225532;28;20056;-75
2022/05/24 06:40:30;;;;;;;7.25;3.95;;;16.10;99.90;;;;;;5219375;28;20049;-75
2022/05/24 06:43:03;;;;;;;7.00;3.90;;;16.10;99.90;;;;;;5211747;28;20535;-75
2022/05/24 06:45:38;;;;;;;8.15;3.80;;;16.00;99.90;;;;;;5204048;28;20515;-75
2022/05/24 06:48:11;;;;;;;5.85;3.65;;;16.00;99.90;;;;;;5217066;28;20064;-75
2022/05/24 06:50:43;;;;;;;9.85;4.15;;;16.00;99.90;;;;;;5218100;28;20044;-75
2022/05/24 06:53:17;;;;;;;5.68;3.30;;;16.00;99.90;;;;;;5219816;28;20049;-74
2022/05/24 06:55:49;;;;;;;;;;;15.90;99.90;;;;;;5192338;28;20543;-75
2022/05/24 06:58:22;;;;;;;6.80;3.47;;;15.90;99.90;;;;;;5214828;28;20460;-77
2022/05/24 07:03:46;;;;;;;4.78;3.88;;;15.90;99.90;;;;;;5222914;28;20052;-74
2022/05/24 07:06:20;;;;;;;4.57;3.67;;;15.90;99.90;;;;;;5224097;28;20052;-76
2022/05/24 07:08:53;;;;;;;6.10;3.67;;;16.00;99.90;;;;;;5204640;28;20044;-76
2022/05/24 07:11:25;;;;;;;7.80;3.88;;;16.00;99.90;;;;;;5225614;28;20508;-76
2022/05/24 07:13:58;;;;;;;7.20;3.28;;;16.10;99.90;;;;;;5220061;28;20045;-75
2022/05/24 07:16:31;;;;;;;8.40;3.70;;;16.00;99.90;;;;;;5219900;28;20416;-75
2022/05/24 07:19:08;;;;;;;8.85;3.80;;;16.10;99.90;;;;;;5215449;28;20048;-75
2022/05/24 07:21:41;;;;;;;5.38;3.28;;;16.00;99.90;;;;;;5223604;28;20678;-75
2022/05/24 07:24:13;;;;;;;9.48;4.20;;;16.00;99.90;;;;;;5218527;28;20040;-75
2022/05/24 07:26:45;;;;;;;8.80;3.67;;;16.00;99.90;;;;;;5217588;28;20393;-75
2022/05/24 07:29:26;;;;;;;7.40;3.63;;;16.00;99.90;;;;;;5220440;28;20045;-76
2022/05/24 07:31:59;;;;;;;5.35;4.43;;;15.90;99.90;;;;;;5219696;28;20063;-75
2022/05/24 07:34:32;;;;;;;6.65;3.88;;;15.90;99.90;;;;;;5223786;28;20061;-75
2022/05/24 07:37:06;;;;;;;;;;;15.90;99.90;;;;;;5221438;28;20052;-75
2022/05/24 07:39:38;;;;;;;9.57;4.63;;;15.90;99.90;;;;;;5220336;28;19925;-75
2022/05/24 07:47:54;;;;;;;8.82;4.70;;;15.80;99.90;;;;;;5218184;28;20044;-75
2022/05/24 07:50:28;;;;;;;12.15;5.25;;;15.80;99.90;;;;;;5219394;28;20052;-76
2022/05/24 07:53:00;;;;;;;7.68;4.70;;;15.80;99.90;;;;;;5219468;28;20386;-76
2022/05/24 07:55:32;;;;;;;7.70;3.88;;;15.80;99.90;;;;;;5219279;28;20048;-75
2022/05/24 07:58:05;;;;;;;10.32;6.00;;;15.70;99.90;;;;;;5220404;28;20423;-76
2022/05/24 08:00:38;;;;;;;12.38;5.20;;;15.70;99.90;;;;;;5221854;28;20072;-76
2022/05/24 08:03:10;;;;;;;9.27;4.85;;;15.70;99.90;;;;;;5216998;28;20424;-74
2022/05/24 08:05:43;;;;;;;9.05;4.20;;;15.70;99.90;;;;;;5218727;28;20048;-77
2022/05/24 08:08:17;;;;;;;7.82;4.88;;;15.70;99.90;;;;;;5218096;28;20538;-75
2022/05/24 08:10:49;;;;;;;9.73;4.05;;;15.70;99.90;;;;;;5225668;28;20045;-76
2022/05/24 08:13:22;;;;;;;8.95;4.57;;;15.60;99.90;;;;;;5220769;28;20056;-76
2022/05/24 08:15:56;;;;;;;19.10;5.35;;;15.50;99.90;;;;;;5221105;28;20052;-75
2022/05/24 08:18:29;;;;;;;9.15;5.30;;;15.50;99.90;;;;;;5217012;28;20060;-75
2022/05/24 08:21:01;;;;;;;9.00;4.63;;;15.50;99.90;;;;;;5218313;28;20045;-75
2022/05/24 08:23:34;;;;;;;9.70;4.72;;;15.50;99.90;;;;;;5222713;28;20045;-75
2022/05/24 08:26:06;;;;;;;8.50;4.93;;;15.50;99.90;;;;;;5215172;28;20044;-76
2022/05/24 08:28:41;;;;;;;16.52;5.35;;;15.40;99.90;;;;;;5218812;28;20045;-75
2022/05/24 08:31:15;;;;;;;11.63;4.45;;;15.30;99.90;;;;;;5205059;28;20525;-76
2022/05/24 08:33:49;;;;;;;9.15;4.72;;;15.30;99.90;;;;;;5210702;28;20053;-76
2022/05/24 08:36:21;;;;;;;;;;;15.30;99.90;;;;;;5205045;28;20056;-76
2022/05/24 08:38:53;;;;;;;8.77;4.20;;;15.10;99.90;;;;;;5212167;28;19924;-76
2022/05/24 08:41:51;;;;;;;6.38;4.53;;;15.10;99.90;;;;;;5217686;28;20786;-76
2022/05/24 08:50:26;;;;;;;9.50;4.43;;;15.10;99.90;;;;;;5216473;28;20507;-76
2022/05/24 08:53:04;;;;;;;8.65;4.13;;;15.20;99.90;;;;;;5218397;28;20060;-75
2022/05/24 08:55:43;;;;;;;9.35;4.70;;;15.10;99.90;;;;;;5217652;28;20103;-76
2022/05/24 08:58:35;;;;;;;7.53;4.65;;;15.20;99.90;;;;;;5216702;28;20063;-75
2022/05/24 09:01:17;;;;;;;6.30;4.80;;;15.20;99.90;;;;;;5215544;28;20055;-75
2022/05/24 09:03:50;;;;;;;12.00;4.25;;;15.10;99.90;;;;;;5214365;28;20420;-75
2022/05/24 09:06:40;;;;;;;7.55;4.72;;;15.10;99.90;;;;;;5215875;28;20041;-75
2022/05/24 09:09:43;;;;;;;7.28;4.55;;;15.00;99.90;;;;;;5217281;28;20512;-76
2022/05/24 09:12:49;;;;;;;7.72;3.60;;;15.10;99.90;;;;;;5214641;28;20098;-76
2022/05/24 09:15:58;;;;;;;10.45;4.93;;;15.10;99.90;;;;;;5207667;28;20044;-75
2022/05/24 09:18:44;;;;;;;5.93;3.97;;;15.10;99.90;;;;;;4173142;28;10000943;-75
2022/05/24 09:21:21;;;;;;;10.02;3.50;;;15.10;99.90;;;;;;5209394;28;20072;-75
2022/05/24 09:24:09;;;;;;;8.57;4.78;;;15.10;99.90;;;;;;5216656;28;20044;-76
2022/05/24 09:27:01;;;;;;;8.77;4.00;;;15.10;99.90;;;;;;5209048;28;20048;-74
2022/05/24 09:29:52;;;;;;;9.65;5.03;;;15.10;99.90;;;;;;5205795;28;20480;-75
2022/05/24 09:32:38;;;;;;;4.70;3.67;;;15.10;99.90;;;;;;5207293;28;20044;-75
2022/05/24 09:35:20;;;;;;;13.35;5.47;;;15.20;99.90;;;;;;5209618;28;20382;-76
2022/05/24 09:38:08;;;;;;;7.47;4.20;;;15.20;99.90;;;;;;5208601;28;20055;-75
2022/05/24 09:40:50;;;;;;;6.95;3.70;;;15.20;99.90;;;;;;5208441;28;20079;-76
2022/05/24 09:43:26;;;;;;;7.22;3.80;;;15.20;99.90;;;;;;5207124;28;20044;-75
2022/05/24 09:46:08;;;;;;;6.68;4.88;;;15.20;99.90;;;;;;5189357;28;20041;-76
2022/05/24 09:48:57;;;;;;;8.73;4.55;;;15.30;99.90;;;;;;5210452;28;20518;-74
2022/05/24 09:51:51;;;;;;;7.45;3.83;;;15.30;99.90;;;;;;5204487;28;20765;-76
2022/05/24 09:54:28;;;;;;;8.57;4.18;;;15.20;99.90;;;;;;5214893;28;20059;-75
2022/05/24 09:57:08;;;;;;;6.88;4.47;;;15.20;99.90;;;;;;5218569;28;20049;-76
2022/05/24 09:59:56;;;;;;;8.93;4.85;;;15.20;99.90;;;;;;5218836;28;20492;-76
2022/05/24 10:02:31;;;;;;;7.93;3.55;;;15.20;99.90;;;;;;5204736;28;20067;-75
2022/05/24 10:05:21;;;;;;;9.77;3.72;;;15.20;99.90;;;;;;5217177;28;20056;-76
2022/05/24 10:07:58;;;;;;;5.63;3.28;;;15.30;99.90;;;;;;5220963;28;20501;-75
2022/05/24 10:10:45;;;;;;;8.77;3.50;;;15.30;99.90;;;;;;5219157;28;20068;-75
2022/05/24 10:13:44;;;;;;;5.78;3.20;;;15.40;99.90;;;;;;5222598;28;20048;-75
2022/05/24 10:16:22;;;;;;;7.53;3.00;;;15.40;99.90;;;;;;5205550;28;20048;-74
2022/05/24 10:19:18;;;;;;;7.82;3.22;;;15.30;99.90;;;;;;5218673;28;20416;-75
2022/05/24 10:22:06;;;;;;;6.65;2.80;;;15.30;99.90;;;;;;5225668;28;20053;-76
2022/05/24 10:25:13;;;;;;;7.10;3.13;;;15.40;99.90;;;;;;5218200;28;20053;-75
2022/05/24 10:28:14;;;;;;;6.55;3.00;;;15.30;99.90;;;;;;5219473;28;20500;-75
2022/05/24 10:30:47;;;;;;;5.03;2.90;;;15.30;99.90;;;;;;5191269;28;20048;-76
2022/05/24 10:39:54;;;;;;;7.15;3.30;;;15.30;99.90;;;;;;5201671;28;20076;-75
2022/05/24 10:42:47;;;;;;;5.40;3.38;;;15.30;99.90;;;;;;5216226;28;20059;-75
2022/05/24 10:45:49;;;;;;;7.18;3.15;;;15.40;99.90;;;;;;5223174;28;20320;-76
2022/05/24 10:48:31;;;;;;;8.45;4.25;;;15.50;99.90;;;;;;5230135;28;20041;-75
2022/05/24 10:51:32;;;;;;;6.13;4.00;;;15.50;99.90;;;;;;5220079;28;20719;-76
2022/05/24 10:54:26;;;;;;;7.70;4.30;;;15.60;99.90;;;;;;5224400;28;20059;-75
2022/05/24 10:57:09;;;;;;;6.45;4.18;;;15.70;99.90;;;;;;5229786;28;20061;-75
2022/05/24 10:59:45;;;;;;;6.13;4.65;;;15.70;99.90;;;;;;5210312;28;20048;-74
2022/05/24 11:02:21;;;;;;;8.48;4.40;;;15.80;99.90;;;;;;5214703;28;20045;-75
2022/05/24 11:05:06;;;;;;;4.80;3.00;;;15.90;99.90;;;;;;5221632;28;20413;-75
2022/05/24 11:07:39;;;;;;;7.60;4.28;;;15.80;99.90;;;;;;5221623;28;20056;-75
2022/05/24 11:10:22;;;;;;;6.90;4.13;;;15.80;99.90;;;;;;5217620;28;20045;-75
2022/05/24 11:13:01;;;;;;;5.28;3.00;;;15.90;99.90;;;;;;5221470;28;20584;-76
2022/05/24 11:15:45;;;;;;;4.68;2.67;;;15.80;99.90;;;;;;5216475;28;20044;-74
2022/05/24 11:18:24;;;;;;;6.53;4.07;;;15.80;99.90;;;;;;5212005;28;20052;-75
2022/05/24 11:21:21;;;;;;;4.60;3.08;;;15.80;99.90;;;;;;5201231;28;20048;-75
2022/05/24 11:24:12;;;;;;;7.88;3.53;;;15.80;99.90;;;;;;5229270;28;20040;-75
2022/05/24 11:26:53;;;;;;;7.15;3.17;;;15.90;99.90;;;;;;5216023;28;20120;-74
2022/05/24 11:29:44;;;;;;;4.50;3.35;;;15.90;99.90;;;;;;5219610;28;20044;-74
2022/05/24 11:32:32;;;;;;;5.60;3.35;;;15.90;99.90;;;;;;5219057;28;20632;-75
2022/05/24 11:35:07;;;;;;;6.18;3.45;;;15.90;99.90;;;;;;5219109;28;20045;-75
2022/05/24 11:37:42;;;;;;;5.50;3.13;;;15.90;99.90;;;;;;5204908;28;20057;-74
2022/05/24 11:40:34;;;;;;;6.45;3.45;;;15.80;99.90;;;;;;5209030;28;20044;-75
2022/05/24 11:43:31;;;;;;;5.55;3.40;;;15.80;99.90;;;;;;5210976;28;20049;-75
2022/05/24 11:46:03;;;;;;;7.43;3.95;;;15.70;99.90;;;;;;5211495;28;20049;-75
2022/05/24 11:48:51;;;;;;;5.90;3.50;;;15.70;99.90;;;;;;5209148;28;20045;-74
2022/05/24 11:51:32;;;;;;;4.60;3.70;;;15.70;99.90;;;;;;4878792;28;10001242;-74
2022/05/24 11:54:18;;;;;;;7.35;4.45;;;15.70;99.90;;;;;;4516451;28;10000809;-75
2022/05/24 11:57:02;;;;;;;8.48;6.07;;;15.70;99.90;;;;;;5200998;28;20044;-75
2022/05/24 11:59:55;;;;;;;9.05;4.80;;;15.70;99.90;;;;;;5206946;28;20451;-75
2022/05/24 12:02:32;;;;;;;9.20;4.30;;;15.70;99.90;;;;;;5208617;28;20040;-74
2022/05/24 12:08:32;;;;;;;10.73;5.82;;;15.70;99.90;;;;;;5211005;28;20049;-75
2022/05/24 12:11:05;;;;;;;9.20;5.70;;;15.70;99.90;;;;;;5208737;28;20037;-75
2022/05/24 12:13:57;;;;;;;9.48;6.80;;;15.70;99.90;;;;;;5221915;28;20044;-76
2022/05/24 12:16:42;;;;;;;9.73;4.68;;;15.80;99.90;;;;;;5205408;28;20045;-75
2022/05/24 12:19:40;;;;;;;15.50;4.95;;;15.70;99.90;;;;;;5202230;28;20630;-75
2022/05/24 12:22:20;;;;;;;7.43;4.60;;;15.70;99.90;;;;;;5204268;28;20044;-75
2022/05/24 12:25:01;;;;;;;14.02;5.63;;;15.70;99.90;;;;;;5208848;28;20045;-75
2022/05/24 12:27:53;;;;;;;7.35;5.93;;;15.70;99.90;;;;;;5198387;28;20044;-75
2022/05/24 12:30:29;;;;;;;8.27;5.50;;;15.70;99.90;;;;;;5206672;28;20078;-74
2022/05/24 12:33:11;;;;;;;10.18;6.75;;;15.70;99.90;;;;;;5212457;28;20409;-76
2022/05/24 12:35:54;;;;;;;10.82;7.10;;;15.70;99.90;;;;;;5205335;28;20499;-75
2022/05/24 12:38:29;;;;;;;11.18;7.20;;;15.70;99.90;;;;;;5206432;28;20044;-75
2022/05/24 12:41:09;;;;;;;8.75;7.00;;;15.70;99.90;;;;;;5212711;28;20421;-76
2022/05/24 12:43:56;;;;;;;8.82;7.20;;;15.70;99.90;;;;;;5213354;28;20053;-75
2022/05/24 12:46:33;;;;;;;8.98;7.70;;;15.70;99.90;;;;;;5201553;28;20036;-75
2022/05/24 12:49:15;;;;;;;5.60;2.40;;;15.60;99.90;;;;;;5207562;28;20040;-76
2022/05/24 12:51:48;;;;;;;4.38;1.63;;;15.30;99.90;;;;;;5195880;28;20052;-74
2022/05/24 12:54:31;;;;;;;6.28;1.50;;;14.90;99.90;;;;;;5205353;28;20064;-75
2022/05/24 12:57:12;;;;;;;4.07;1.40;;;14.70;99.90;;;;;;5209239;28;20500;-75
2022/05/24 12:59:57;;;;;;;4.05;1.60;;;14.40;99.90;;;;;;5194823;28;20053;-74
2022/05/24 13:02:34;;;;;;;11.25;1.90;;;14.30;99.90;;;;;;5203916;28;20052;-74
2022/05/24 13:05:06;;;;;;;5.78;1.98;;;14.20;99.90;;;;;;5209139;28;20049;-75
2022/05/24 13:07:42;;;;;;;4.28;1.60;;;14.20;99.90;;;;;;5210585;28;20049;-75
2022/05/24 13:10:21;;;;;;;7.07;1.88;;;14.20;99.90;;;;;;5215196;28;20048;-76
2022/05/24 13:13:02;;;;;;;6.38;2.40;;;14.20;99.90;;;;;;5212347;28;20039;-75
2022/05/24 13:15:37;;;;;;;3.28;1.63;;;14.20;99.90;;;;;;5196365;28;20056;-74
2022/05/24 13:18:16;;;;;;;7.20;1.92;;;14.00;99.90;;;;;;5206684;28;20047;-75
2022/05/24 13:20:52;;;;;;;7.28;2.20;;;14.00;99.90;;;;;;5215753;28;20037;-75
2022/05/24 13:23:32;;;;;;;3.60;2.17;;;14.00;99.90;;;;;;5210388;28;20052;-75
2022/05/24 13:26:05;;;;;;;9.55;2.08;;;14.00;99.90;;;;;;5205277;28;20041;-75
2022/05/24 13:28:45;;;;;;;8.80;2.55;;;14.00;99.90;;;;;;5212737;28;20055;-75
2022/05/24 13:34:32;;;;;;;4.32;2.35;;;14.10;99.90;;;;;;5212455;28;20048;-75
2022/05/24 13:37:12;;;;;;;4.22;2.10;;;14.20;99.90;;;;;;5229101;28;20063;-74
2022/05/24 13:39:44;;;;;;;5.05;1.90;;;14.30;99.90;;;;;;5212346;28;20053;-75
2022/05/24 13:42:17;;;;;;;4.38;2.10;;;14.40;99.90;;;;;;5215035;28;20045;-75
2022/05/24 13:45:20;;;;;;;2.33;1.63;;;14.50;99.90;;;;;;5210693;28;20284;-75
2022/05/24 13:47:56;;;;;;;5.45;2.22;;;14.60;99.90;;;;;;5199834;28;20585;-75
2022/05/24 13:50:41;;;;;;;2.75;2.35;;;14.70;99.90;;;;;;5207365;28;20055;-75
2022/05/24 13:53:39;;;;;;;4.85;2.55;;;14.90;99.90;;;;;;5212826;28;20044;-75
2022/05/24 13:56:45;;;;;;;4.40;2.65;;;14.90;99.90;;;;;;5205059;28;20488;-75
2022/05/24 13:59:22;;;;;;;4.63;2.40;;;15.00;99.90;;;;;;5210499;28;20063;-75
2022/05/24 14:02:11;;;;;;;7.18;2.50;;;15.00;99.90;;;;;;5212015;28;20044;-75
2022/05/24 14:04:45;;;;;;;4.82;2.60;;;15.00;99.90;;;;;;5209053;28;20493;-74
2022/05/24 14:07:18;;;;;;;6.72;2.72;;;14.90;99.90;;;;;;5214343;28;20052;-75
2022/05/24 14:09:50;;;;;;;3.63;3.03;;;14.90;99.90;;;;;;5212904;28;21201;-75
2022/05/24 14:12:23;;;;;;;3.85;3.38;;;14.90;99.90;;;;;;5213305;28;20061;-75
2022/05/24 14:14:55;;;;;;;2.90;2.60;;;15.00;99.90;;;;;;5203380;28;20071;-75
2022/05/24 14:17:28;;;;;;;6.05;3.28;;;15.20;99.90;;;;;;5201399;28;20055;-77
2022/05/24 14:20:01;;;;;;;4.90;2.70;;;15.30;99.90;;;;;;5205040;28;20747;-77